Time;durP1;ratioP1;P1;durP2;ratioP2;P2;SDS_P1;SDS_P2;PMS_P1;PMS_P2;Temp;Humidity;BMP_temperature;BMP_pressure;BME280_temperature;BME280_humidity;BME280_pressure;Samples;Min_cycle;Max_cycle;Signal;HPM_P1;HPM_P2
2022/07/01 00:01:03;;;;;;;3.53;1.02;;;;;;;;;;5072758;28;20052;-65
2022/07/01 00:03:30;;;;;;;1.90;1.25;;;;;;;;;;5055432;28;20422;-66
2022/07/01 00:05:56;;;;;;;4.07;1.20;;;;;;;;;;5071640;28;20056;-65
2022/07/01 00:08:23;;;;;;;2.50;1.13;;;;;;;;;;5073125;28;20047;-66
2022/07/01 00:10:50;;;;;;;4.07;1.15;;;;;;;;;;5071480;28;20056;-65
2022/07/01 00:13:16;;;;;;;3.60;1.00;;;;;;;;;;5054950;28;20048;-67
2022/07/01 00:15:43;;;;;;;2.38;1.30;;;;;;;;;;5071244;28;20055;-66
2022/07/01 00:18:10;;;;;;;2.92;1.00;;;;;;;;;;5072301;28;20044;-66
2022/07/01 00:20:36;;;;;;;2.33;0.80;;;;;;;;;;5072165;28;20381;-65
2022/07/01 00:23:03;;;;;;;3.08;1.00;;;;;;;;;;5071189;28;20085;-65
2022/07/01 00:25:30;;;;;;;2.47;0.90;;;;;;;;;;5072835;28;20052;-65
2022/07/01 00:27:56;;;;;;;1.80;1.20;;;;;;;;;;5072422;28;20139;-65
2022/07/01 00:30:23;;;;;;;2.25;0.88;;;;;;;;;;5072377;28;20153;-66
2022/07/01 00:32:52;;;;;;;4.40;1.17;;;;;;;;;;5071923;28;20419;-65
2022/07/01 00:35:19;;;;;;;3.00;1.42;;;;;;;;;;5071276;28;20052;-66
2022/07/01 00:37:46;;;;;;;3.47;1.20;;;;;;;;;;5070858;28;20487;-66
2022/07/01 00:40:13;;;;;;;3.85;1.10;;;;;;;;;;5072298;28;20080;-67
2022/07/01 00:42:43;;;;;;;1.95;0.90;;;;;;;;;;5070861;28;20503;-67
2022/07/01 00:45:10;;;;;;;1.02;0.70;;;;;;;;;;5071011;28;20469;-67
2022/07/01 00:47:38;;;;;;;3.70;1.67;;;;;;;;;;5054372;28;20056;-67
2022/07/01 00:50:12;;;;;;;2.05;0.90;;;;;;;;;;5054466;28;20070;-66
2022/07/01 00:52:40;;;;;;;1.17;0.80;;;;;;;;;;5055233;28;20044;-66
2022/07/01 00:55:11;;;;;;;2.88;0.90;;;;;;;;;;5072349;28;20132;-66
2022/07/01 00:57:40;;;;;;;2.60;1.60;;;;;;;;;;5070655;28;20045;-65
2022/07/01 01:00:09;;;;;;;1.83;1.20;;;;;;;;;;5054023;28;20415;-65
2022/07/01 01:02:36;;;;;;;2.85;1.45;;;;;;;;;;5070742;28;20052;-66
2022/07/01 01:05:04;;;;;;;2.08;1.23;;;;;;;;;;5070646;28;20059;-65
2022/07/01 01:07:31;;;;;;;2.00;0.90;;;;;;;;;;5054197;28;20059;-65
2022/07/01 01:10:01;;;;;;;2.05;0.95;;;;;;;;;;5070536;28;20044;-65
2022/07/01 01:12:29;;;;;;;2.67;0.85;;;;;;;;;;5070465;28;20048;-66
2022/07/01 01:14:57;;;;;;;1.88;0.73;;;;;;;;;;5054361;28;20733;-66
2022/07/01 01:17:24;;;;;;;3.05;0.80;;;;;;;;;;5071110;28;20083;-67
2022/07/01 01:19:51;;;;;;;2.60;1.05;;;;;;;;;;5054075;28;20056;-67
2022/07/01 01:22:18;;;;;;;2.28;0.90;;;;;;;;;;5053914;28;20084;-66
2022/07/01 01:24:47;;;;;;;1.80;1.08;;;;;;;;;;5071720;28;20051;-67
2022/07/01 01:27:14;;;;;;;1.13;1.02;;;;;;;;;;5070621;28;20051;-66
2022/07/01 01:29:41;;;;;;;0.70;0.70;;;;;;;;;;5070494;28;20130;-66
2022/07/01 01:32:08;;;;;;;1.17;0.80;;;;;;;;;;5074259;28;20067;-67
2022/07/01 01:34:36;;;;;;;1.00;0.80;;;;;;;;;;5057998;28;20476;-66
2022/07/01 01:37:05;;;;;;;1.58;0.80;;;;;;;;;;5041806;28;20114;-67
2022/07/01 01:39:32;;;;;;;1.58;0.90;;;;;;;;;;5075532;28;20055;-68
2022/07/01 01:42:00;;;;;;;1.15;0.60;;;;;;;;;;5075593;28;20418;-68
2022/07/01 01:44:26;;;;;;;2.60;0.60;;;;;;;;;;5074333;28;20049;-67
2022/07/01 01:46:53;;;;;;;1.25;0.50;;;;;;;;;;5075442;28;20056;-67
2022/07/01 01:49:20;;;;;;;2.42;0.98;;;;;;;;;;5074276;28;20044;-67
2022/07/01 01:51:47;;;;;;;4.05;1.00;;;;;;;;;;5075059;28;20427;-67
2022/07/01 01:54:13;;;;;;;1.40;0.90;;;;;;;;;;5074116;28;20075;-67
2022/07/01 01:56:40;;;;;;;2.58;1.10;;;;;;;;;;5075391;28;20052;-67
2022/07/01 01:59:06;;;;;;;1.45;0.90;;;;;;;;;;5073808;28;20487;-67
2022/07/01 02:01:33;;;;;;;1.95;0.80;;;;;;;;;;5075125;28;20052;-68
2022/07/01 02:04:00;;;;;;;2.08;0.90;;;;;;;;;;5074062;28;20067;-66
2022/07/01 02:06:26;;;;;;;2.65;1.08;;;;;;;;;;5073851;28;20144;-66
2022/07/01 02:08:53;;;;;;;2.10;0.90;;;;;;;;;;5075082;28;20040;-68
2022/07/01 02:11:20;;;;;;;1.63;1.10;;;;;;;;;;5073749;28;20488;-67
2022/07/01 02:13:46;;;;;;;2.38;1.10;;;;;;;;;;5073823;28;20052;-67
2022/07/01 02:16:13;;;;;;;1.10;1.00;;;;;;;;;;5074777;28;20071;-67
2022/07/01 02:18:40;;;;;;;3.63;1.38;;;;;;;;;;5073615;28;20045;-67
2022/07/01 02:21:06;;;;;;;2.85;1.85;;;;;;;;;;5074413;28;20123;-67
2022/07/01 02:23:37;;;;;;;2.97;1.70;;;;;;;;;;5073685;28;20051;-67
2022/07/01 02:26:03;;;;;;;1.95;1.13;;;;;;;;;;5073609;28;20052;-68
2022/07/01 02:28:30;;;;;;;2.00;1.63;;;;;;;;;;5074707;28;20048;-67
2022/07/01 02:30:57;;;;;;;1.77;1.52;;;;;;;;;;5073448;28;20052;-68
2022/07/01 02:33:23;;;;;;;2.03;1.33;;;;;;;;;;5074774;28;20147;-67
2022/07/01 02:35:50;;;;;;;3.92;1.70;;;;;;;;;;5073140;28;20048;-65
2022/07/01 02:38:17;;;;;;;2.83;1.25;;;;;;;;;;5073501;28;20056;-65
2022/07/01 02:40:44;;;;;;;1.33;1.23;;;;;;;;;;5073242;28;20056;-67
2022/07/01 02:43:10;;;;;;;1.95;1.30;;;;;;;;;;5073934;28;20053;-65
2022/07/01 02:45:37;;;;;;;2.40;1.55;;;;;;;;;;5074385;28;20055;-66
2022/07/01 02:48:04;;;;;;;5.00;1.13;;;;;;;;;;5073349;28;20507;-67
2022/07/01 02:50:31;;;;;;;1.50;1.20;;;;;;;;;;5056380;28;20044;-66
2022/07/01 02:52:58;;;;;;;2.10;1.23;;;;;;;;;;5073170;28;20048;-66
2022/07/01 02:55:25;;;;;;;1.95;1.33;;;;;;;;;;5074328;28;20528;-66
2022/07/01 02:57:51;;;;;;;2.22;1.73;;;;;;;;;;5074206;28;20048;-65
2022/07/01 03:00:20;;;;;;;3.03;1.23;;;;;;;;;;5056153;28;20048;-66
2022/07/01 03:02:47;;;;;;;1.20;1.10;;;;;;;;;;5074266;28;20105;-66
2022/07/01 03:05:13;;;;;;;1.90;0.85;;;;;;;;;;5074225;28;20127;-66
2022/07/01 03:07:40;;;;;;;2.72;1.23;;;;;;;;;;5056450;28;20048;-66
2022/07/01 03:10:08;;;;;;;1.10;1.00;;;;;;;;;;5056315;28;20049;-66
2022/07/01 03:12:35;;;;;;;3.40;1.08;;;;;;;;;;5072601;28;20052;-66
2022/07/01 03:15:03;;;;;;;2.05;1.00;;;;;;;;;;5072981;28;20048;-66
2022/07/01 03:17:31;;;;;;;1.45;1.02;;;;;;;;;;5072536;28;20053;-65
2022/07/01 03:20:05;;;;;;;2.53;1.30;;;;;;;;;;5086746;22;20051;-66
2022/07/01 03:22:32;;;;;;;2.30;0.88;;;;;;;;;;5053745;28;20045;-65
2022/07/01 03:24:59;;;;;;;3.92;1.38;;;;;;;;;;5053818;28;20049;-66
2022/07/01 03:27:26;;;;;;;1.73;1.02;;;;;;;;;;5053780;28;20419;-65
2022/07/01 03:29:53;;;;;;;0.98;0.80;;;;;;;;;;5053417;28;20051;-65
2022/07/01 03:32:19;;;;;;;1.92;0.75;;;;;;;;;;5053526;28;20483;-66
2022/07/01 03:34:47;;;;;;;1.90;1.15;;;;;;;;;;5053627;28;20049;-65
2022/07/01 03:37:14;;;;;;;1.13;1.02;;;;;;;;;;5053380;28;20487;-65
2022/07/01 03:39:41;;;;;;;2.78;1.40;;;;;;;;;;5053530;28;20049;-65
2022/07/01 03:42:09;;;;;;;0.82;0.82;;;;;;;;;;5053228;28;20107;-65
2022/07/01 03:44:36;;;;;;;3.88;1.05;;;;;;;;;;5053352;28;20060;-65
2022/07/01 03:47:05;;;;;;;1.55;0.95;;;;;;;;;;5053551;28;20121;-66
2022/07/01 03:49:35;;;;;;;3.50;1.50;;;;;;;;;;5053097;28;20041;-66
2022/07/01 03:52:03;;;;;;;1.70;1.10;;;;;;;;;;5053122;28;20053;-65
2022/07/01 03:54:30;;;;;;;2.03;1.23;;;;;;;;;;5052290;28;20087;-65
2022/07/01 03:56:57;;;;;;;2.83;1.25;;;;;;;;;;5053197;28;20510;-65
2022/07/01 03:59:25;;;;;;;1.20;1.10;;;;;;;;;;5053404;28;20049;-65
2022/07/01 04:01:55;;;;;;;1.23;1.08;;;;;;;;;;5053042;28;20518;-66
2022/07/01 04:04:23;;;;;;;1.20;1.10;;;;;;;;;;5053253;28;20056;-65
2022/07/01 04:06:50;;;;;;;2.05;1.33;;;;;;;;;;5053104;28;20049;-65
2022/07/01 04:09:17;;;;;;;1.65;1.20;;;;;;;;;;5052782;28;20052;-65
2022/07/01 04:11:44;;;;;;;1.70;1.23;;;;;;;;;;5052487;28;20053;-66
2022/07/01 04:14:11;;;;;;;1.83;1.42;;;;;;;;;;5067872;28;20057;-65
2022/07/01 04:16:40;;;;;;;1.27;1.13;;;;;;;;;;5052778;28;20049;-65
2022/07/01 04:19:07;;;;;;;2.17;1.80;;;;;;;;;;5067753;28;20059;-66
2022/07/01 04:24:19;;;;;;;3.30;1.83;;;;;;;;;;5052561;28;20059;-66
2022/07/01 04:26:45;;;;;;;3.15;2.05;;;;;;;;;;5052659;28;20057;-66
2022/07/01 04:29:12;;;;;;;2.40;2.00;;;;;;;;;;5052820;28;20056;-66
2022/07/01 04:31:39;;;;;;;3.05;1.98;;;;;;;;;;5052426;28;20053;-66
2022/07/01 04:34:06;;;;;;;2.13;1.80;;;;;;;;;;5052520;28;20462;-66
2022/07/01 04:36:33;;;;;;;4.07;1.95;;;;;;;;;;5052570;28;20049;-66
2022/07/01 04:39:00;;;;;;;2.45;1.85;;;;;;;;;;5052319;28;20052;-66
2022/07/01 04:44:12;;;;;;;2.78;2.13;;;;;;;;;;5052323;28;20534;-66
2022/07/01 04:46:39;;;;;;;3.17;2.60;;;;;;;;;;5052319;28;20094;-67
2022/07/01 04:49:06;;;;;;;3.65;2.50;;;;;;;;;;5052081;28;20049;-66
2022/07/01 04:51:34;;;;;;;3.08;2.65;;;;;;;;;;5052139;28;20060;-66
2022/07/01 04:54:05;;;;;;;3.70;3.10;;;;;;;;;;5052125;28;20053;-66
2022/07/01 04:56:33;;;;;;;3.92;3.38;;;;;;;;;;5052026;28;20045;-66
2022/07/01 04:59:01;;;;;;;6.55;3.63;;;;;;;;;;5052011;28;20056;-66
2022/07/01 05:01:31;;;;;;;3.38;3.08;;;;;;;;;;5051722;28;20056;-66
2022/07/01 05:03:58;;;;;;;5.47;2.63;;;;;;;;;;5052181;28;20056;-66
2022/07/01 05:06:24;;;;;;;4.10;2.97;;;;;;;;;;5051866;28;20059;-67
2022/07/01 05:08:52;;;;;;;4.70;2.60;;;;;;;;;;5051925;28;20048;-67
2022/07/01 05:11:19;;;;;;;2.85;2.53;;;;;;;;;;5051640;28;20511;-67
2022/07/01 05:13:45;;;;;;;2.58;2.35;;;;;;;;;;5051822;28;20049;-66
2022/07/01 05:16:12;;;;;;;3.08;2.70;;;;;;;;;;5051675;28;20060;-67
2022/07/01 05:24:10;;;;;;;4.25;2.80;;;;;;;;;;5051880;28;20067;-67
2022/07/01 05:26:36;;;;;;;3.80;2.75;;;;;;;;;;5051874;28;20471;-65
2022/07/01 05:29:04;;;;;;;4.32;2.40;;;;;;;;;;5051810;28;20060;-66
2022/07/01 05:31:30;;;;;;;3.33;3.03;;;;;;;;;;5051419;28;20057;-66
2022/07/01 05:33:57;;;;;;;3.88;2.90;;;;;;;;;;5051552;28;20048;-67
2022/07/01 05:36:30;;;;;;;4.70;2.95;;;;;;;;;;5051812;28;20053;-66
2022/07/01 05:38:56;;;;;;;2.95;2.65;;;;;;;;;;5051763;28;20053;-66
2022/07/01 05:41:23;;;;;;;2.83;2.50;;;;;;;;;;5051180;28;20446;-66
2022/07/01 05:43:50;;;;;;;5.35;3.00;;;;;;;;;;5051720;28;20049;-67
2022/07/01 05:46:16;;;;;;;3.25;2.95;;;;;;;;;;5051389;28;20045;-66
2022/07/01 05:48:43;;;;;;;4.70;3.17;;;;;;;;;;5051705;28;20057;-66
2022/07/01 05:51:10;;;;;;;5.68;3.55;;;;;;;;;;5051183;28;20041;-66
2022/07/01 05:53:36;;;;;;;4.38;2.70;;;;;;;;;;5051379;28;20519;-66
2022/07/01 05:56:03;;;;;;;4.07;3.00;;;;;;;;;;5051682;28;20048;-66
2022/07/01 05:58:30;;;;;;;3.67;2.60;;;;;;;;;;5051296;28;20053;-67
2022/07/01 06:00:57;;;;;;;2.78;2.40;;;;;;;;;;5050954;28;20041;-67
2022/07/01 06:03:34;;;;;;;3.20;2.75;;;;;;;;;;5051338;28;20579;-67
2022/07/01 06:06:01;;;;;;;3.83;3.33;;;;;;;;;;5051366;28;20056;-67
2022/07/01 06:08:27;;;;;;;5.53;2.63;;;;;;;;;;5051195;28;20057;-67
2022/07/01 06:10:54;;;;;;;3.15;2.75;;;;;;;;;;5051056;28;20666;-67
2022/07/01 06:13:21;;;;;;;3.33;2.58;;;;;;;;;;5051454;28;20140;-67
2022/07/01 06:15:47;;;;;;;3.33;2.95;;;;;;;;;;5051353;28;20057;-67
2022/07/01 06:18:14;;;;;;;5.90;3.22;;;;;;;;;;5053842;28;20053;-67
2022/07/01 06:20:41;;;;;;;3.05;2.75;;;;;;;;;;5054452;28;20048;-67
2022/07/01 06:23:07;;;;;;;4.70;3.15;;;;;;;;;;5055067;28;20408;-67
2022/07/01 06:25:34;;;;;;;4.55;2.83;;;;;;;;;;5055020;28;20064;-67
2022/07/01 06:28:01;;;;;;;6.55;2.60;;;;;;;;;;5055029;28;20102;-68
2022/07/01 06:30:27;;;;;;;3.20;2.40;;;;;;;;;;5054767;28;20446;-67
2022/07/01 06:32:54;;;;;;;3.47;2.40;;;;;;;;;;5054574;28;20079;-67
2022/07/01 06:35:21;;;;;;;3.47;2.13;;;;;;;;;;5054573;28;20126;-67
2022/07/01 06:37:47;;;;;;;4.60;2.40;;;;;;;;;;5054924;28;20053;-67
2022/07/01 06:40:20;;;;;;;;;;;;;;;;;;5055084;28;20482;-67
2022/07/01 06:42:47;;;;;;;4.30;3.35;;;;;;;;;;5054391;28;19920;-67
2022/07/01 06:45:14;;;;;;;4.40;3.15;;;;;;;;;;5054299;28;20052;-67
2022/07/01 06:47:40;;;;;;;3.78;2.55;;;;;;;;;;5054482;28;20052;-67
2022/07/01 06:50:07;;;;;;;4.20;2.92;;;;;;;;;;5054260;28;20049;-67
2022/07/01 06:52:34;;;;;;;2.90;2.17;;;;;;;;;;5054204;28;20412;-67
2022/07/01 06:55:01;;;;;;;3.88;2.33;;;;;;;;;;5054455;28;20053;-67
2022/07/01 06:57:28;;;;;;;2.80;2.25;;;;;;;;;;5054286;28;20053;-67
2022/07/01 06:59:55;;;;;;;2.67;1.95;;;;;;;;;;5054180;28;20053;-67
2022/07/01 07:02:21;;;;;;;4.82;2.00;;;;;;;;;;5053973;28;20045;-67
2022/07/01 07:04:57;;;;;;;3.63;2.20;;;;;;;;;;5053159;28;20049;-67
2022/07/01 07:07:26;;;;;;;2.90;1.77;;;;;;;;;;5054428;28;20165;-67
2022/07/01 07:09:53;;;;;;;2.40;2.20;;;;;;;;;;5053937;28;20052;-67
2022/07/01 07:12:19;;;;;;;4.95;2.88;;;;;;;;;;5054243;28;20076;-67
2022/07/01 07:14:46;;;;;;;3.50;2.25;;;;;;;;;;5053736;28;20049;-67
2022/07/01 07:17:12;;;;;;;3.55;1.90;;;;;;;;;;5053959;28;20049;-67
2022/07/01 07:19:39;;;;;;;2.70;2.50;;;;;;;;;;5053834;28;20419;-67
2022/07/01 07:22:06;;;;;;;2.90;2.58;;;;;;;;;;5053901;28;20052;-67
2022/07/01 07:24:32;;;;;;;2.65;2.00;;;;;;;;;;5053876;28;20470;-67
2022/07/01 07:26:59;;;;;;;3.50;2.20;;;;;;;;;;5053639;28;20049;-66
2022/07/01 07:29:26;;;;;;;3.00;2.53;;;;;;;;;;5053438;28;20045;-67
2022/07/01 07:31:52;;;;;;;3.53;2.85;;;;;;;;;;5053604;28;20056;-67
2022/07/01 07:34:19;;;;;;;4.50;2.50;;;;;;;;;;5053762;28;20049;-67
2022/07/01 07:36:46;;;;;;;3.47;3.00;;;;;;;;;;5053613;28;20048;-67
2022/07/01 07:39:12;;;;;;;4.13;2.83;;;;;;;;;;5053489;28;20053;-67
2022/07/01 07:41:39;;;;;;;2.50;2.10;;;;;;;;;;5053041;28;20479;-67
2022/07/01 07:44:06;;;;;;;4.38;2.90;;;;;;;;;;5053184;28;20049;-67
2022/07/01 07:46:32;;;;;;;4.18;2.33;;;;;;;;;;5053249;28;20288;-67
2022/07/01 07:48:59;;;;;;;4.45;2.97;;;;;;;;;;5053186;28;20049;-67
2022/07/01 07:51:26;;;;;;;5.30;2.10;;;;;;;;;;5053057;28;20052;-67
2022/07/01 07:53:52;;;;;;;3.30;2.00;;;;;;;;;;5053171;28;20045;-67
2022/07/01 07:56:20;;;;;;;1.90;1.73;;;;;;;;;;5053090;28;20053;-67
2022/07/01 07:58:47;;;;;;;3.78;1.80;;;;;;;;;;5052934;28;20106;-67
2022/07/01 08:01:14;;;;;;;2.83;2.20;;;;;;;;;;5052987;28;20049;-67
2022/07/01 08:03:40;;;;;;;3.28;1.70;;;;;;;;;;5053166;28;20052;-67
2022/07/01 08:06:07;;;;;;;2.17;1.75;;;;;;;;;;5052993;28;20056;-67
2022/07/01 08:08:34;;;;;;;3.40;1.52;;;;;;;;;;5052733;28;20097;-67
2022/07/01 08:11:00;;;;;;;3.15;1.73;;;;;;;;;;5052558;28;20442;-67
2022/07/01 08:13:27;;;;;;;2.72;1.77;;;;;;;;;;5052674;28;20055;-67
2022/07/01 08:15:55;;;;;;;2.75;2.47;;;;;;;;;;5052871;28;20060;-67
2022/07/01 08:18:23;;;;;;;3.83;2.38;;;;;;;;;;5052645;28;20504;-67
2022/07/01 08:20:52;;;;;;;3.88;2.65;;;;;;;;;;5052620;28;20091;-67
2022/07/01 08:23:20;;;;;;;4.70;2.80;;;;;;;;;;5052512;28;20518;-67
2022/07/01 08:25:50;;;;;;;2.90;2.67;;;;;;;;;;5052411;28;20057;-67
2022/07/01 08:28:16;;;;;;;4.38;3.10;;;;;;;;;;5052759;28;20076;-66
2022/07/01 08:30:43;;;;;;;5.47;3.58;;;;;;;;;;5052388;28;20056;-67
2022/07/01 08:33:10;;;;;;;5.50;3.65;;;;;;;;;;5052402;28;20052;-67
2022/07/01 08:35:37;;;;;;;4.15;3.25;;;;;;;;;;5052249;28;20063;-65
2022/07/01 08:38:04;;;;;;;5.75;3.40;;;;;;;;;;5052267;28;20053;-65
2022/07/01 08:40:31;;;;;;;4.70;3.45;;;;;;;;;;5051610;28;20044;-65
2022/07/01 08:43:04;;;;;;;3.28;2.97;;;;;;;;;;5050872;28;20057;-65
2022/07/01 08:45:32;;;;;;;4.23;3.47;;;;;;;;;;5052491;28;20463;-65
2022/07/01 08:48:02;;;;;;;3.55;2.78;;;;;;;;;;5052395;28;20076;-65
2022/07/01 08:50:30;;;;;;;4.75;2.80;;;;;;;;;;5052217;28;20041;-67
2022/07/01 08:52:57;;;;;;;3.42;2.72;;;;;;;;;;5051917;28;20049;-66
2022/07/01 08:55:24;;;;;;;3.20;2.90;;;;;;;;;;5052251;28;20057;-66
2022/07/01 08:57:51;;;;;;;3.90;2.60;;;;;;;;;;5052098;28;20111;-66
2022/07/01 09:00:18;;;;;;;4.07;2.83;;;;;;;;;;5051977;28;20048;-66
2022/07/01 09:02:51;;;;;;;5.00;2.75;;;;;;;;;;5051914;28;20049;-71
2022/07/01 09:05:18;;;;;;;6.07;2.70;;;;;;;;;;5051900;28;20051;-66
2022/07/01 09:07:46;;;;;;;4.57;2.90;;;;;;;;;;5051971;28;20052;-66
2022/07/01 09:10:18;;;;;;;3.25;2.85;;;;;;;;;;5052001;28;20462;-66
2022/07/01 09:12:47;;;;;;;4.18;2.60;;;;;;;;;;5051692;28;20056;-66
2022/07/01 09:15:25;;;;;;;3.05;2.75;;;;;;;;;;5051666;28;20079;-66
2022/07/01 09:17:54;;;;;;;2.90;2.70;;;;;;;;;;5052012;28;20144;-66
2022/07/01 09:20:28;;;;;;;3.30;3.00;;;;;;;;;;5052054;28;20056;-66
2022/07/01 09:23:14;;;;;;;4.32;3.50;;;;;;;;;;5051796;28;20084;-66
2022/07/01 09:25:47;;;;;;;5.90;3.40;;;;;;;;;;5051743;28;20055;-66
2022/07/01 09:28:23;;;;;;;4.63;3.38;;;;;;;;;;5051804;28;20049;-66
2022/07/01 09:30:51;;;;;;;4.20;3.20;;;;;;;;;;5051379;28;20127;-66
2022/07/01 09:33:20;;;;;;;3.50;2.45;;;;;;;;;;5051818;28;20076;-66
2022/07/01 09:35:50;;;;;;;5.30;2.67;;;;;;;;;;5050269;28;20537;-66
2022/07/01 09:38:23;;;;;;;3.15;2.75;;;;;;;;;;5051659;28;20503;-66
2022/07/01 09:41:03;;;;;;;3.70;2.78;;;;;;;;;;5051430;28;20128;-66
2022/07/01 09:43:32;;;;;;;4.63;3.10;;;;;;;;;;5051607;28;20423;-66
2022/07/01 09:46:04;;;;;;;3.50;3.15;;;;;;;;;;5051447;28;20435;-66
2022/07/01 09:48:34;;;;;;;5.60;3.33;;;;;;;;;;5050541;28;20393;-66
2022/07/01 09:51:02;;;;;;;5.80;3.15;;;;;;;;;;5051459;28;20052;-66
2022/07/01 09:53:29;;;;;;;4.25;3.25;;;;;;;;;;5054770;28;20136;-66
2022/07/01 09:55:56;;;;;;;4.60;3.30;;;;;;;;;;5055368;28;20059;-66
2022/07/01 09:58:23;;;;;;;5.07;3.05;;;;;;;;;;5055604;28;20404;-66
2022/07/01 10:00:49;;;;;;;3.35;2.42;;;;;;;;;;5055138;28;20049;-66
2022/07/01 10:03:16;;;;;;;3.08;2.78;;;;;;;;;;5054123;28;20407;-66
2022/07/01 10:05:52;;;;;;;4.47;2.25;;;;;;;;;;5053939;28;20049;-66
2022/07/01 10:08:30;;;;;;;5.72;2.20;;;;;;;;;;5054193;28;20053;-66
2022/07/01 10:11:23;;;;;;;5.53;3.10;;;;;;;;;;5069228;28;20462;-66
2022/07/01 10:13:50;;;;;;;4.20;2.28;;;;;;;;;;5068923;28;20048;-66
2022/07/01 10:16:19;;;;;;;2.78;2.20;;;;;;;;;;5069981;28;20053;-67
2022/07/01 10:18:46;;;;;;;2.75;2.15;;;;;;;;;;5070317;28;20052;-66
2022/07/01 10:21:26;;;;;;;1.90;1.67;;;;;;;;;;5053572;28;20053;-66
2022/07/01 10:23:56;;;;;;;2.72;2.20;;;;;;;;;;5054707;28;20052;-66
2022/07/01 10:26:28;;;;;;;3.53;2.72;;;;;;;;;;5053424;28;20056;-66
2022/07/01 10:28:55;;;;;;;3.28;2.63;;;;;;;;;;5069798;28;20063;-66
2022/07/01 10:31:37;;;;;;;3.10;2.50;;;;;;;;;;5053644;28;20443;-66
2022/07/01 10:34:08;;;;;;;8.60;2.80;;;;;;;;;;5068441;28;20048;-66
2022/07/01 10:36:35;;;;;;;2.72;1.92;;;;;;;;;;5069885;28;20186;-66
2022/07/01 10:39:03;;;;;;;4.00;1.40;;;;;;;;;;5054831;28;20396;-66
2022/07/01 10:41:31;;;;;;;2.38;1.65;;;;;;;;;;5054422;28;20102;-67
2022/07/01 10:44:00;;;;;;;3.20;1.52;;;;;;;;;;5054581;28;20397;-66
2022/07/01 10:46:46;;;;;;;1.58;1.13;;;;;;;;;;5054362;28;20055;-67
2022/07/01 10:49:14;;;;;;;3.17;1.25;;;;;;;;;;5054357;28;20064;-66
2022/07/01 10:51:52;;;;;;;2.42;1.10;;;;;;;;;;5054294;28;20041;-66
2022/07/01 10:54:39;;;;;;;1.60;1.30;;;;;;;;;;5054412;28;20057;-66
2022/07/01 10:57:15;;;;;;;2.30;1.48;;;;;;;;;;5054408;28;20076;-66
2022/07/01 10:59:50;;;;;;;1.95;1.20;;;;;;;;;;5054143;28;20056;-66
2022/07/01 11:02:16;;;;;;;4.10;1.50;;;;;;;;;;5053865;28;20049;-66
2022/07/01 11:04:49;;;;;;;2.70;1.30;;;;;;;;;;5053977;28;20107;-66
2022/07/01 11:07:16;;;;;;;1.92;1.02;;;;;;;;;;5054193;28;20558;-66
2022/07/01 11:09:43;;;;;;;2.53;1.02;;;;;;;;;;5053926;28;20056;-66
2022/07/01 11:12:10;;;;;;;2.30;1.10;;;;;;;;;;5054027;28;20511;-66
2022/07/01 11:14:37;;;;;;;1.25;1.10;;;;;;;;;;5053829;28;20049;-66
2022/07/01 11:17:05;;;;;;;2.22;1.15;;;;;;;;;;5052890;28;20132;-66
2022/07/01 11:19:32;;;;;;;2.05;1.20;;;;;;;;;;5053914;28;20049;-66
2022/07/01 11:21:59;;;;;;;1.63;1.27;;;;;;;;;;5053714;28;20049;-66
2022/07/01 11:24:26;;;;;;;2.13;1.00;;;;;;;;;;5053774;28;20052;-66
2022/07/01 11:27:11;;;;;;;1.38;1.00;;;;;;;;;;5053772;28;20045;-66
2022/07/01 11:29:37;;;;;;;1.80;0.85;;;;;;;;;;5053798;28;20488;-67
2022/07/01 11:32:04;;;;;;;2.60;1.00;;;;;;;;;;5053578;28;20041;-67
2022/07/01 11:34:31;;;;;;;2.05;0.73;;;;;;;;;;5052383;28;20129;-67
2022/07/01 11:39:47;;;;;;;3.90;0.90;;;;;;;;;;5053318;28;20088;-66
2022/07/01 11:42:13;;;;;;;1.80;0.80;;;;;;;;;;5052007;28;20045;-67
2022/07/01 11:44:42;;;;;;;2.85;1.23;;;;;;;;;;5053184;28;20424;-66
2022/07/01 11:47:11;;;;;;;1.98;1.15;;;;;;;;;;5053390;28;20052;-66
2022/07/01 11:49:46;;;;;;;1.00;0.90;;;;;;;;;;5053101;28;20048;-66
2022/07/01 11:52:13;;;;;;;1.45;0.90;;;;;;;;;;5052975;28;20084;-65
2022/07/01 11:54:40;;;;;;;1.70;0.93;;;;;;;;;;5053289;28;20045;-65
2022/07/01 11:57:12;;;;;;;1.13;1.00;;;;;;;;;;5053253;28;20049;-65
2022/07/01 11:59:39;;;;;;;2.75;1.15;;;;;;;;;;5052989;28;20080;-66
2022/07/01 12:02:10;;;;;;;2.80;1.50;;;;;;;;;;5051546;28;20045;-66
2022/07/01 12:04:41;;;;;;;2.20;1.30;;;;;;;;;;5052998;28;20139;-66
2022/07/01 12:07:08;;;;;;;1.55;0.93;;;;;;;;;;5053021;28;20045;-66
2022/07/01 12:09:35;;;;;;;3.95;1.13;;;;;;;;;;5068551;28;20057;-66
2022/07/01 12:12:04;;;;;;;1.35;0.60;;;;;;;;;;5053313;28;20048;-67
2022/07/01 12:14:33;;;;;;;1.67;0.70;;;;;;;;;;5067271;28;20064;-66
2022/07/01 12:17:01;;;;;;;4.40;1.55;;;;;;;;;;5052814;28;20049;-66
2022/07/01 12:19:41;;;;;;;2.45;1.13;;;;;;;;;;5052519;28;20583;-66
2022/07/01 12:22:10;;;;;;;1.30;1.13;;;;;;;;;;5052543;28;20127;-67
2022/07/01 12:24:37;;;;;;;1.40;0.90;;;;;;;;;;5053136;28;20053;-67
2022/07/01 12:27:06;;;;;;;1.00;0.90;;;;;;;;;;5052739;28;20088;-67
2022/07/01 12:29:50;;;;;;;2.10;1.13;;;;;;;;;;5052346;28;20531;-67
2022/07/01 12:32:22;;;;;;;1.30;1.00;;;;;;;;;;5052441;28;20073;-68
2022/07/01 12:35:00;;;;;;;1.75;1.00;;;;;;;;;;5052582;28;20076;-67
2022/07/01 12:37:30;;;;;;;1.38;1.00;;;;;;;;;;5052306;28;20049;-67
2022/07/01 12:40:01;;;;;;;1.77;1.15;;;;;;;;;;5052217;28;20080;-67
2022/07/01 12:42:29;;;;;;;2.72;1.02;;;;;;;;;;5052385;28;20056;-68
2022/07/01 12:44:58;;;;;;;2.25;0.95;;;;;;;;;;5052418;28;20083;-66
2022/07/01 12:47:27;;;;;;;0.95;0.60;;;;;;;;;;5052269;28;20057;-66
2022/07/01 12:50:28;;;;;;;1.05;0.70;;;;;;;;;;5052268;28;20060;-66
2022/07/01 12:53:18;;;;;;;1.45;0.90;;;;;;;;;;5052071;28;20114;-66
2022/07/01 12:55:53;;;;;;;0.65;0.60;;;;;;;;;;5052176;28;20048;-68
2022/07/01 12:58:24;;;;;;;1.00;0.60;;;;;;;;;;5067565;28;20045;-67
2022/07/01 13:00:55;;;;;;;1.50;0.75;;;;;;;;;;5074459;28;20079;-65
2022/07/01 13:03:26;;;;;;;0.95;0.70;;;;;;;;;;5074901;28;20033;-66
2022/07/01 13:05:53;;;;;;;1.45;0.80;;;;;;;;;;5074740;28;20049;-67
2022/07/01 13:08:20;;;;;;;1.67;0.95;;;;;;;;;;5074048;28;20049;-66
2022/07/01 13:10:47;;;;;;;0.98;0.60;;;;;;;;;;5073326;28;20053;-67
2022/07/01 13:13:16;;;;;;;1.23;0.80;;;;;;;;;;5061102;28;20063;-66
2022/07/01 13:15:44;;;;;;;2.65;0.70;;;;;;;;;;5052572;28;20049;-66
2022/07/01 13:18:13;;;;;;;1.15;0.75;;;;;;;;;;5051889;28;20074;-66
2022/07/01 13:20:44;;;;;;;0.95;0.60;;;;;;;;;;5051490;28;20049;-67
2022/07/01 13:23:11;;;;;;;1.10;0.60;;;;;;;;;;5051693;28;20049;-67
2022/07/01 13:25:38;;;;;;;2.22;1.20;;;;;;;;;;5051566;28;20053;-66
2022/07/01 13:28:05;;;;;;;2.28;0.90;;;;;;;;;;5050565;28;20059;-66
2022/07/01 13:30:32;;;;;;;1.65;0.75;;;;;;;;;;5051635;28;20049;-66
2022/07/01 13:32:58;;;;;;;2.00;0.88;;;;;;;;;;5051667;28;20049;-66
2022/07/01 13:35:25;;;;;;;1.55;0.77;;;;;;;;;;5051742;28;20076;-66
2022/07/01 13:37:52;;;;;;;1.38;0.80;;;;;;;;;;5051760;28;20053;-66
2022/07/01 13:40:18;;;;;;;2.95;0.70;;;;;;;;;;5051551;28;20068;-67
2022/07/01 13:42:45;;;;;;;1.80;0.70;;;;;;;;;;5067063;28;20045;-67
2022/07/01 13:45:13;;;;;;;1.73;0.70;;;;;;;;;;5051475;28;20511;-66
2022/07/01 13:47:40;;;;;;;0.80;0.75;;;;;;;;;;5051592;28;20091;-66
2022/07/01 13:50:07;;;;;;;2.05;0.85;;;;;;;;;;5051594;28;20223;-66
2022/07/01 13:52:33;;;;;;;1.58;0.98;;;;;;;;;;5051511;28;20500;-66
2022/07/01 13:55:00;;;;;;;2.08;0.80;;;;;;;;;;5051562;28;20055;-67
2022/07/01 13:57:27;;;;;;;1.10;0.80;;;;;;;;;;5051568;28;20056;-66
2022/07/01 13:59:54;;;;;;;1.75;0.80;;;;;;;;;;5051620;28;20428;-66
2022/07/01 14:02:20;;;;;;;2.35;0.98;;;;;;;;;;5051471;28;20045;-67
2022/07/01 14:04:47;;;;;;;1.27;0.60;;;;;;;;;;5051397;28;20053;-66
2022/07/01 14:07:14;;;;;;;2.08;0.82;;;;;;;;;;5051522;28;20057;-67
2022/07/01 14:09:43;;;;;;;2.63;0.80;;;;;;;;;;5051884;28;20502;-67
2022/07/01 14:12:10;;;;;;;1.48;0.77;;;;;;;;;;5051669;28;20051;-67
2022/07/01 14:14:42;;;;;;;1.23;0.77;;;;;;;;;;5060598;28;20049;-67
2022/07/01 14:17:09;;;;;;;0.70;0.70;;;;;;;;;;5063625;28;20036;-66
2022/07/01 14:19:36;;;;;;;0.55;0.45;;;;;;;;;;5068474;28;20033;-67
2022/07/01 14:22:03;;;;;;;1.40;0.98;;;;;;;;;;5067146;28;20084;-67
2022/07/01 14:24:29;;;;;;;2.20;0.85;;;;;;;;;;5062165;28;20061;-66
2022/07/01 14:26:56;;;;;;;2.25;0.60;;;;;;;;;;5060314;28;20047;-66
2022/07/01 14:29:23;;;;;;;2.42;0.98;;;;;;;;;;5052563;28;20049;-66
2022/07/01 14:31:49;;;;;;;1.40;1.05;;;;;;;;;;5051262;28;20049;-65
2022/07/01 14:34:16;;;;;;;2.85;1.00;;;;;;;;;;5066379;28;20045;-66
2022/07/01 14:36:43;;;;;;;1.50;0.90;;;;;;;;;;5051064;28;20053;-67
2022/07/01 14:39:10;;;;;;;1.65;1.00;;;;;;;;;;5053806;28;20056;-67
2022/07/01 14:41:36;;;;;;;1.20;0.90;;;;;;;;;;5054489;28;20053;-66
2022/07/01 14:44:03;;;;;;;1.20;0.95;;;;;;;;;;5055221;28;20053;-67
2022/07/01 14:46:30;;;;;;;1.55;0.50;;;;;;;;;;5054710;28;20052;-66
2022/07/01 14:48:57;;;;;;;1.83;0.60;;;;;;;;;;5054704;28;20053;-66
2022/07/01 14:51:23;;;;;;;1.05;0.73;;;;;;;;;;5054131;28;20060;-66
2022/07/01 14:53:50;;;;;;;1.58;0.70;;;;;;;;;;5054313;28;20045;-66
2022/07/01 14:56:22;;;;;;;1.45;1.08;;;;;;;;;;5054516;28;20128;-66
2022/07/01 14:58:49;;;;;;;2.25;1.05;;;;;;;;;;5054646;28;20052;-66
2022/07/01 15:01:16;;;;;;;0.88;0.60;;;;;;;;;;5053034;28;20052;-65
2022/07/01 15:03:42;;;;;;;0.70;0.70;;;;;;;;;;5053061;28;20114;-66